Santa Leopoldina, Brazil
Current Conditions -  °F | °C
As of 5:00 PM on Friday 31 Oct 2014 (Local Time) from SBAN Reporting Station
Scattered Clouds Scattered Clouds  
Wind Chill: 73°   Ceiling: Unl
Heat Index: 73°   Visibility: 6mi
Dew Point: 63°   Wind: 6mph
Humidity: 69%   Direction: 350°N
Pressure: 30.03"   Gusts: NA
Location:  14.9°S, 51.08°W
Report Text: SBAN 311900Z 35005KT 9999 SCT020 FEW025TCU 23/17 Q1017
Loading
Personal Weather Stations






























Interactive Weather Map
Tropical Storm Tracking
New forecast layout! Learn more

10-Day Weather Forecast

Advertisements
Track Severe Weather on mobile